sensor_id;sensor_type;location;lat;lon;timestamp;pressure;altitude;pressure_sealevel;temperature;humidity
61436;BME280;47304;47.456;19.160;2024-01-10T00:00:47;101973.65;;;-4.58;60.52
61436;BME280;47304;47.456;19.160;2024-01-10T00:03:15;101976.86;;;-4.60;60.76
61436;BME280;47304;47.456;19.160;2024-01-10T00:05:44;101974.61;;;-4.62;60.82
61436;BME280;47304;47.456;19.160;2024-01-10T00:08:12;101976.90;;;-4.65;60.81
61436;BME280;47304;47.456;19.160;2024-01-10T00:10:40;101975.98;;;-4.68;60.91
61436;BME280;47304;47.456;19.160;2024-01-10T00:13:08;101981.02;;;-4.69;61.18
61436;BME280;47304;47.456;19.160;2024-01-10T00:15:37;101983.39;;;-4.70;61.23
61436;BME280;47304;47.456;19.160;2024-01-10T00:18:05;101981.77;;;-4.71;61.44
61436;BME280;47304;47.456;19.160;2024-01-10T00:20:34;101985.63;;;-4.71;61.47
61436;BME280;47304;47.456;19.160;2024-01-10T00:23:02;101985.42;;;-4.72;61.45
61436;BME280;47304;47.456;19.160;2024-01-10T00:25:31;101980.14;;;-4.74;61.43
61436;BME280;47304;47.456;19.160;2024-01-10T00:27:59;101982.65;;;-4.74;61.49
61436;BME280;47304;47.456;19.160;2024-01-10T00:30:27;101983.36;;;-4.76;61.45
61436;BME280;47304;47.456;19.160;2024-01-10T00:32:56;101983.84;;;-4.78;61.52
61436;BME280;47304;47.456;19.160;2024-01-10T00:35:24;101986.47;;;-4.79;61.75
61436;BME280;47304;47.456;19.160;2024-01-10T00:37:53;101983.23;;;-4.81;61.86
61436;BME280;47304;47.456;19.160;2024-01-10T00:40:21;101986.52;;;-4.83;61.88
61436;BME280;47304;47.456;19.160;2024-01-10T00:42:49;101984.13;;;-4.85;61.93
61436;BME280;47304;47.456;19.160;2024-01-10T00:45:18;101989.77;;;-4.87;62.27
61436;BME280;47304;47.456;19.160;2024-01-10T00:47:48;101995.17;;;-4.88;62.28
61436;BME280;47304;47.456;19.160;2024-01-10T00:50:16;101991.94;;;-4.91;62.36
61436;BME280;47304;47.456;19.160;2024-01-10T00:52:45;101994.62;;;-4.92;62.61
61436;BME280;47304;47.456;19.160;2024-01-10T00:55:14;101990.77;;;-4.95;62.72
61436;BME280;47304;47.456;19.160;2024-01-10T00:57:42;101991.61;;;-4.97;62.87
61436;BME280;47304;47.456;19.160;2024-01-10T01:00:12;101992.80;;;-4.99;63.00
61436;BME280;47304;47.456;19.160;2024-01-10T01:02:40;101989.66;;;-5.02;62.84
61436;BME280;47304;47.456;19.160;2024-01-10T01:05:10;101996.11;;;-5.04;62.98
61436;BME280;47304;47.456;19.160;2024-01-10T01:07:38;101994.95;;;-5.06;63.32
61436;BME280;47304;47.456;19.160;2024-01-10T01:10:07;101995.30;;;-5.08;63.42
61436;BME280;47304;47.456;19.160;2024-01-10T01:12:35;101998.16;;;-5.10;63.24
61436;BME280;47304;47.456;19.160;2024-01-10T01:15:05;101997.80;;;-5.12;63.26
61436;BME280;47304;47.456;19.160;2024-01-10T01:17:33;101997.59;;;-5.14;63.32
61436;BME280;47304;47.456;19.160;2024-01-10T01:20:01;102000.70;;;-5.16;63.49
61436;BME280;47304;47.456;19.160;2024-01-10T01:22:30;101997.60;;;-5.18;63.47
61436;BME280;47304;47.456;19.160;2024-01-10T01:24:58;101995.60;;;-5.20;63.60
61436;BME280;47304;47.456;19.160;2024-01-10T01:27:27;101995.41;;;-5.22;63.47
61436;BME280;47304;47.456;19.160;2024-01-10T01:29:56;101996.09;;;-5.24;63.52
61436;BME280;47304;47.456;19.160;2024-01-10T01:32:24;101995.47;;;-5.25;63.75
61436;BME280;47304;47.456;19.160;2024-01-10T01:34:52;101991.43;;;-5.26;63.78
61436;BME280;47304;47.456;19.160;2024-01-10T01:37:21;101992.73;;;-5.29;63.70
61436;BME280;47304;47.456;19.160;2024-01-10T01:39:49;101991.38;;;-5.31;63.78
61436;BME280;47304;47.456;19.160;2024-01-10T01:42:18;101997.84;;;-5.31;63.87
61436;BME280;47304;47.456;19.160;2024-01-10T01:44:46;101996.52;;;-5.33;63.78
61436;BME280;47304;47.456;19.160;2024-01-10T01:47:15;101992.84;;;-5.34;63.82
61436;BME280;47304;47.456;19.160;2024-01-10T01:49:43;101985.63;;;-5.34;63.89
61436;BME280;47304;47.456;19.160;2024-01-10T01:52:11;101986.60;;;-5.35;63.96
61436;BME280;47304;47.456;19.160;2024-01-10T01:54:40;101988.67;;;-5.36;63.97
61436;BME280;47304;47.456;19.160;2024-01-10T01:57:09;101985.81;;;-5.37;63.97
61436;BME280;47304;47.456;19.160;2024-01-10T01:59:37;101981.95;;;-5.39;63.90
61436;BME280;47304;47.456;19.160;2024-01-10T02:02:05;101981.40;;;-5.41;64.15
61436;BME280;47304;47.456;19.160;2024-01-10T02:04:35;101981.52;;;-5.42;64.21
61436;BME280;47304;47.456;19.160;2024-01-10T02:07:04;101986.05;;;-5.42;64.08
61436;BME280;47304;47.456;19.160;2024-01-10T02:09:32;101981.96;;;-5.44;64.02
61436;BME280;47304;47.456;19.160;2024-01-10T02:12:01;101985.13;;;-5.47;64.08
61436;BME280;47304;47.456;19.160;2024-01-10T02:14:29;101980.08;;;-5.49;64.09
61436;BME280;47304;47.456;19.160;2024-01-10T02:16:58;101981.42;;;-5.51;64.15
61436;BME280;47304;47.456;19.160;2024-01-10T02:19:26;101977.89;;;-5.52;64.10
61436;BME280;47304;47.456;19.160;2024-01-10T02:21:54;101978.23;;;-5.52;64.22
61436;BME280;47304;47.456;19.160;2024-01-10T02:24:22;101974.10;;;-5.52;64.23
61436;BME280;47304;47.456;19.160;2024-01-10T02:26:51;101970.98;;;-5.53;64.36
61436;BME280;47304;47.456;19.160;2024-01-10T02:29:19;101971.48;;;-5.53;64.45
61436;BME280;47304;47.456;19.160;2024-01-10T02:31:48;101969.29;;;-5.52;64.34
61436;BME280;47304;47.456;19.160;2024-01-10T02:34:16;101964.50;;;-5.53;64.41
61436;BME280;47304;47.456;19.160;2024-01-10T02:36:44;101967.91;;;-5.53;64.25
61436;BME280;47304;47.456;19.160;2024-01-10T02:39:12;101968.61;;;-5.52;64.18
61436;BME280;47304;47.456;19.160;2024-01-10T02:41:40;101963.55;;;-5.52;64.24
61436;BME280;47304;47.456;19.160;2024-01-10T02:44:09;101965.50;;;-5.51;64.18
61436;BME280;47304;47.456;19.160;2024-01-10T02:46:37;101962.89;;;-5.52;64.14
61436;BME280;47304;47.456;19.160;2024-01-10T02:49:06;101965.45;;;-5.52;64.04
61436;BME280;47304;47.456;19.160;2024-01-10T02:51:34;101965.88;;;-5.52;63.99
61436;BME280;47304;47.456;19.160;2024-01-10T02:54:03;101972.45;;;-5.52;64.06
61436;BME280;47304;47.456;19.160;2024-01-10T02:56:31;101971.08;;;-5.52;64.17
61436;BME280;47304;47.456;19.160;2024-01-10T02:58:59;101967.22;;;-5.51;64.17
61436;BME280;47304;47.456;19.160;2024-01-10T03:01:27;101964.15;;;-5.51;64.07
61436;BME280;47304;47.456;19.160;2024-01-10T03:03:56;101968.81;;;-5.50;64.10
61436;BME280;47304;47.456;19.160;2024-01-10T03:06:24;101971.98;;;-5.51;63.99
61436;BME280;47304;47.456;19.160;2024-01-10T03:08:54;101971.02;;;-5.52;64.04
61436;BME280;47304;47.456;19.160;2024-01-10T03:11:22;101971.01;;;-5.52;64.21
61436;BME280;47304;47.456;19.160;2024-01-10T03:14:03;101974.02;;;-5.53;64.19
61436;BME280;47304;47.456;19.160;2024-01-10T03:16:30;101974.25;;;-5.54;64.21
61436;BME280;47304;47.456;19.160;2024-01-10T03:18:58;101976.21;;;-5.55;64.24
61436;BME280;47304;47.456;19.160;2024-01-10T03:21:27;101971.15;;;-5.56;64.63
61436;BME280;47304;47.456;19.160;2024-01-10T03:23:56;101971.15;;;-5.58;64.69
61436;BME280;47304;47.456;19.160;2024-01-10T03:26:25;101973.83;;;-5.59;64.55
61436;BME280;47304;47.456;19.160;2024-01-10T03:28:54;101972.98;;;-5.61;64.50
61436;BME280;47304;47.456;19.160;2024-01-10T03:31:22;101975.04;;;-5.60;64.66
61436;BME280;47304;47.456;19.160;2024-01-10T03:33:51;101975.80;;;-5.61;64.79
61436;BME280;47304;47.456;19.160;2024-01-10T03:36:19;101978.70;;;-5.62;64.74
61436;BME280;47304;47.456;19.160;2024-01-10T03:38:47;101971.83;;;-5.62;64.91
61436;BME280;47304;47.456;19.160;2024-01-10T03:41:17;101965.80;;;-5.63;64.87
61436;BME280;47304;47.456;19.160;2024-01-10T03:43:45;101962.39;;;-5.65;64.76
61436;BME280;47304;47.456;19.160;2024-01-10T03:46:14;101962.67;;;-5.66;64.69
61436;BME280;47304;47.456;19.160;2024-01-10T03:48:43;101963.20;;;-5.67;64.77
61436;BME280;47304;47.456;19.160;2024-01-10T03:51:11;101959.62;;;-5.67;64.79
61436;BME280;47304;47.456;19.160;2024-01-10T03:53:40;101966.22;;;-5.68;64.68
61436;BME280;47304;47.456;19.160;2024-01-10T03:56:10;101970.62;;;-5.68;64.74
61436;BME280;47304;47.456;19.160;2024-01-10T03:58:39;101968.63;;;-5.68;64.65
61436;BME280;47304;47.456;19.160;2024-01-10T04:01:08;101970.50;;;-5.68;64.68
61436;BME280;47304;47.456;19.160;2024-01-10T04:03:36;101970.59;;;-5.68;64.63
61436;BME280;47304;47.456;19.160;2024-01-10T04:06:05;101974.74;;;-5.68;64.61
61436;BME280;47304;47.456;19.160;2024-01-10T04:08:33;101976.88;;;-5.69;64.53
61436;BME280;47304;47.456;19.160;2024-01-10T04:11:02;101973.08;;;-5.69;64.51
61436;BME280;47304;47.456;19.160;2024-01-10T04:13:30;101974.52;;;-5.70;64.64
61436;BME280;47304;47.456;19.160;2024-01-10T04:15:58;101971.45;;;-5.72;64.42
61436;BME280;47304;47.456;19.160;2024-01-10T04:18:27;101968.79;;;-5.73;64.55
61436;BME280;47304;47.456;19.160;2024-01-10T04:20:55;101971.92;;;-5.74;64.67
61436;BME280;47304;47.456;19.160;2024-01-10T04:23:23;101973.55;;;-5.75;64.57
61436;BME280;47304;47.456;19.160;2024-01-10T04:25:51;101972.52;;;-5.76;64.72
61436;BME280;47304;47.456;19.160;2024-01-10T04:28:19;101975.84;;;-5.76;64.82
61436;BME280;47304;47.456;19.160;2024-01-10T04:30:48;101973.91;;;-5.77;64.97
61436;BME280;47304;47.456;19.160;2024-01-10T04:33:16;101973.20;;;-5.77;64.90
61436;BME280;47304;47.456;19.160;2024-01-10T04:35:44;101973.27;;;-5.78;64.80
61436;BME280;47304;47.456;19.160;2024-01-10T04:38:13;101975.31;;;-5.81;64.74
61436;BME280;47304;47.456;19.160;2024-01-10T04:40:41;101980.48;;;-5.82;64.96
61436;BME280;47304;47.456;19.160;2024-01-10T04:43:09;101981.64;;;-5.84;64.86
61436;BME280;47304;47.456;19.160;2024-01-10T04:45:38;101985.98;;;-5.87;64.83
61436;BME280;47304;47.456;19.160;2024-01-10T04:48:07;101986.36;;;-5.88;64.84
61436;BME280;47304;47.456;19.160;2024-01-10T04:50:35;101988.40;;;-5.91;64.85
61436;BME280;47304;47.456;19.160;2024-01-10T04:53:04;101985.58;;;-5.93;64.90
61436;BME280;47304;47.456;19.160;2024-01-10T04:55:32;101991.23;;;-5.95;64.91
61436;BME280;47304;47.456;19.160;2024-01-10T04:58:00;101994.27;;;-5.97;65.12
61436;BME280;47304;47.456;19.160;2024-01-10T05:00:31;101995.50;;;-5.99;65.18
61436;BME280;47304;47.456;19.160;2024-01-10T05:02:59;101993.88;;;-6.00;65.29
61436;BME280;47304;47.456;19.160;2024-01-10T05:05:28;101991.57;;;-6.01;65.48
61436;BME280;47304;47.456;19.160;2024-01-10T05:07:56;101995.55;;;-6.02;65.40
61436;BME280;47304;47.456;19.160;2024-01-10T05:10:25;101998.67;;;-6.03;65.38
61436;BME280;47304;47.456;19.160;2024-01-10T05:12:53;101994.42;;;-6.05;65.26
61436;BME280;47304;47.456;19.160;2024-01-10T05:15:22;101995.98;;;-6.07;65.43
61436;BME280;47304;47.456;19.160;2024-01-10T05:17:51;101994.55;;;-6.09;65.43
61436;BME280;47304;47.456;19.160;2024-01-10T05:20:19;101994.73;;;-6.11;65.44
61436;BME280;47304;47.456;19.160;2024-01-10T05:22:47;101992.07;;;-6.13;65.67
61436;BME280;47304;47.456;19.160;2024-01-10T05:25:15;101992.05;;;-6.13;65.67
61436;BME280;47304;47.456;19.160;2024-01-10T05:27:44;101993.36;;;-6.13;65.62
61436;BME280;47304;47.456;19.160;2024-01-10T05:30:14;101996.95;;;-6.13;65.66
61436;BME280;47304;47.456;19.160;2024-01-10T05:32:42;101993.70;;;-6.13;65.63
61436;BME280;47304;47.456;19.160;2024-01-10T05:35:11;101990.18;;;-6.13;65.65
61436;BME280;47304;47.456;19.160;2024-01-10T05:37:39;101994.77;;;-6.11;65.87
61436;BME280;47304;47.456;19.160;2024-01-10T05:40:09;101998.56;;;-6.10;65.67
61436;BME280;47304;47.456;19.160;2024-01-10T05:42:37;101996.04;;;-6.10;65.68
61436;BME280;47304;47.456;19.160;2024-01-10T05:45:07;101991.66;;;-6.09;65.72
61436;BME280;47304;47.456;19.160;2024-01-10T05:47:36;101987.01;;;-6.10;65.69
61436;BME280;47304;47.456;19.160;2024-01-10T05:50:05;101990.00;;;-6.09;65.64
61436;BME280;47304;47.456;19.160;2024-01-10T05:52:34;101993.08;;;-6.08;65.54
61436;BME280;47304;47.456;19.160;2024-01-10T05:55:03;101993.14;;;-6.10;65.58
61436;BME280;47304;47.456;19.160;2024-01-10T05:57:32;101989.78;;;-6.12;65.61
61436;BME280;47304;47.456;19.160;2024-01-10T06:00:00;101993.16;;;-6.12;65.65
61436;BME280;47304;47.456;19.160;2024-01-10T06:02:28;101988.20;;;-6.12;65.61
61436;BME280;47304;47.456;19.160;2024-01-10T06:04:57;101990.72;;;-6.12;65.71
61436;BME280;47304;47.456;19.160;2024-01-10T06:07:25;101993.26;;;-6.12;65.84
61436;BME280;47304;47.456;19.160;2024-01-10T06:09:54;101991.33;;;-6.13;65.81
61436;BME280;47304;47.456;19.160;2024-01-10T06:12:22;101996.57;;;-6.14;65.85
61436;BME280;47304;47.456;19.160;2024-01-10T06:14:50;102000.51;;;-6.14;65.85
61436;BME280;47304;47.456;19.160;2024-01-10T06:17:18;101998.98;;;-6.13;65.90
61436;BME280;47304;47.456;19.160;2024-01-10T06:19:46;102001.83;;;-6.14;65.65
61436;BME280;47304;47.456;19.160;2024-01-10T06:22:15;102000.28;;;-6.14;65.62
61436;BME280;47304;47.456;19.160;2024-01-10T06:24:43;102001.08;;;-6.13;65.66
61436;BME280;47304;47.456;19.160;2024-01-10T06:27:12;102001.67;;;-6.12;65.54
61436;BME280;47304;47.456;19.160;2024-01-10T06:29:40;102006.01;;;-6.11;65.46
61436;BME280;47304;47.456;19.160;2024-01-10T06:32:08;102011.65;;;-6.13;65.62
61436;BME280;47304;47.456;19.160;2024-01-10T06:34:37;102012.98;;;-6.13;65.42
61436;BME280;47304;47.456;19.160;2024-01-10T06:37:05;102013.75;;;-6.12;65.65
61436;BME280;47304;47.456;19.160;2024-01-10T06:39:33;102017.48;;;-6.11;65.46
61436;BME280;47304;47.456;19.160;2024-01-10T06:42:02;102021.55;;;-6.13;65.46
61436;BME280;47304;47.456;19.160;2024-01-10T06:44:30;102021.98;;;-6.12;65.41
61436;BME280;47304;47.456;19.160;2024-01-10T06:46:59;102023.52;;;-6.12;65.17
61436;BME280;47304;47.456;19.160;2024-01-10T06:49:27;102027.61;;;-6.08;65.30
61436;BME280;47304;47.456;19.160;2024-01-10T06:51:55;102030.16;;;-6.04;65.16
61436;BME280;47304;47.456;19.160;2024-01-10T06:54:23;102030.73;;;-6.00;65.50
61436;BME280;47304;47.456;19.160;2024-01-10T06:56:51;102031.45;;;-5.98;65.37
61436;BME280;47304;47.456;19.160;2024-01-10T06:59:20;102035.55;;;-5.94;65.68
61436;BME280;47304;47.456;19.160;2024-01-10T07:01:52;102037.64;;;-5.90;65.56
61436;BME280;47304;47.456;19.160;2024-01-10T07:04:21;102043.10;;;-5.86;65.39
61436;BME280;47304;47.456;19.160;2024-01-10T07:06:49;102039.44;;;-5.83;65.48
61436;BME280;47304;47.456;19.160;2024-01-10T07:09:17;102042.84;;;-5.78;65.52
61436;BME280;47304;47.456;19.160;2024-01-10T07:11:46;102047.39;;;-5.72;65.46
61436;BME280;47304;47.456;19.160;2024-01-10T07:14:14;102048.92;;;-5.67;65.31
61436;BME280;47304;47.456;19.160;2024-01-10T07:16:43;102040.46;;;-5.63;65.29
61436;BME280;47304;47.456;19.160;2024-01-10T07:19:11;102047.08;;;-5.57;65.24
61436;BME280;47304;47.456;19.160;2024-01-10T07:21:40;102041.20;;;-5.53;65.24
61436;BME280;47304;47.456;19.160;2024-01-10T07:24:08;102036.98;;;-5.46;65.36
61436;BME280;47304;47.456;19.160;2024-01-10T07:26:36;102037.70;;;-5.38;65.35
61436;BME280;47304;47.456;19.160;2024-01-10T07:29:05;102040.48;;;-5.30;65.73
61436;BME280;47304;47.456;19.160;2024-01-10T07:31:33;102037.55;;;-5.21;65.70
61436;BME280;47304;47.456;19.160;2024-01-10T07:34:02;102037.65;;;-5.12;65.54
61436;BME280;47304;47.456;19.160;2024-01-10T07:36:30;102037.77;;;-5.05;65.31
61436;BME280;47304;47.456;19.160;2024-01-10T07:38:58;102042.05;;;-4.97;65.20
61436;BME280;47304;47.456;19.160;2024-01-10T07:41:27;102041.33;;;-4.90;65.10
61436;BME280;47304;47.456;19.160;2024-01-10T07:43:55;102042.70;;;-4.79;65.00
61436;BME280;47304;47.456;19.160;2024-01-10T07:46:23;102037.38;;;-4.70;64.88
61436;BME280;47304;47.456;19.160;2024-01-10T07:48:51;102042.02;;;-4.60;64.76
61436;BME280;47304;47.456;19.160;2024-01-10T07:51:20;102047.46;;;-4.50;64.49
61436;BME280;47304;47.456;19.160;2024-01-10T07:53:48;102046.09;;;-4.41;64.54
61436;BME280;47304;47.456;19.160;2024-01-10T07:56:16;102044.68;;;-4.31;64.40
61436;BME280;47304;47.456;19.160;2024-01-10T07:58:44;102044.86;;;-4.21;64.16
61436;BME280;47304;47.456;19.160;2024-01-10T08:01:13;102042.48;;;-4.11;64.38
61436;BME280;47304;47.456;19.160;2024-01-10T08:03:42;102046.17;;;-3.99;64.12
61436;BME280;47304;47.456;19.160;2024-01-10T08:06:10;102046.22;;;-3.91;63.79
61436;BME280;47304;47.456;19.160;2024-01-10T08:08:38;102044.30;;;-3.81;63.57
61436;BME280;47304;47.456;19.160;2024-01-10T08:11:07;102049.39;;;-3.69;63.52
61436;BME280;47304;47.456;19.160;2024-01-10T08:13:35;102049.98;;;-3.60;63.19
61436;BME280;47304;47.456;19.160;2024-01-10T08:16:04;102048.52;;;-3.51;62.77
61436;BME280;47304;47.456;19.160;2024-01-10T08:18:32;102049.80;;;-3.41;62.61
61436;BME280;47304;47.456;19.160;2024-01-10T08:21:00;102049.61;;;-3.31;62.20
61436;BME280;47304;47.456;19.160;2024-01-10T08:23:28;102053.94;;;-3.18;62.10
61436;BME280;47304;47.456;19.160;2024-01-10T08:25:57;102050.67;;;-3.08;61.23
61436;BME280;47304;47.456;19.160;2024-01-10T08:28:25;102055.02;;;-2.99;60.72
61436;BME280;47304;47.456;19.160;2024-01-10T08:30:53;102058.61;;;-2.88;60.49
61436;BME280;47304;47.456;19.160;2024-01-10T08:33:21;102061.70;;;-2.75;59.85
61436;BME280;47304;47.456;19.160;2024-01-10T08:35:49;102060.42;;;-2.61;59.47
61436;BME280;47304;47.456;19.160;2024-01-10T08:38:18;102062.88;;;-2.45;58.83
61436;BME280;47304;47.456;19.160;2024-01-10T08:40:46;102064.86;;;-2.26;59.16
61436;BME280;47304;47.456;19.160;2024-01-10T08:43:14;102060.73;;;-2.04;58.28
61436;BME280;47304;47.456;19.160;2024-01-10T08:45:42;102053.32;;;-1.86;57.99
61436;BME280;47304;47.456;19.160;2024-01-10T08:48:11;102057.52;;;-1.65;57.51
61436;BME280;47304;47.456;19.160;2024-01-10T08:50:39;102056.91;;;-1.36;56.90
61436;BME280;47304;47.456;19.160;2024-01-10T08:53:07;102060.23;;;-0.96;56.74
61436;BME280;47304;47.456;19.160;2024-01-10T08:55:36;102054.56;;;-0.53;55.30
61436;BME280;47304;47.456;19.160;2024-01-10T08:58:04;102050.60;;;-0.04;54.04
61436;BME280;47304;47.456;19.160;2024-01-10T09:00:32;102045.06;;;0.42;51.73
61436;BME280;47304;47.456;19.160;2024-01-10T09:03:00;102044.34;;;0.78;50.23
61436;BME280;47304;47.456;19.160;2024-01-10T09:05:29;102040.67;;;1.09;49.82
61436;BME280;47304;47.456;19.160;2024-01-10T09:07:57;102040.96;;;1.33;49.03
61436;BME280;47304;47.456;19.160;2024-01-10T09:10:25;102036.95;;;1.57;48.02
61436;BME280;47304;47.456;19.160;2024-01-10T09:12:53;102036.73;;;1.82;47.49
61436;BME280;47304;47.456;19.160;2024-01-10T09:15:22;102032.73;;;2.18;47.36
61436;BME280;47304;47.456;19.160;2024-01-10T09:17:50;102031.74;;;2.78;47.00
61436;BME280;47304;47.456;19.160;2024-01-10T09:20:18;102023.45;;;3.40;45.59
61436;BME280;47304;47.456;19.160;2024-01-10T09:22:46;102020.41;;;4.00;44.19
61436;BME280;47304;47.456;19.160;2024-01-10T09:25:14;102021.63;;;4.57;42.92
61436;BME280;47304;47.456;19.160;2024-01-10T09:27:42;102012.04;;;5.25;41.62
61436;BME280;47304;47.456;19.160;2024-01-10T09:30:13;102011.27;;;5.95;40.56
61436;BME280;47304;47.456;19.160;2024-01-10T09:32:41;102011.17;;;6.65;39.63
61436;BME280;47304;47.456;19.160;2024-01-10T09:35:09;102002.84;;;7.31;38.31
61436;BME280;47304;47.456;19.160;2024-01-10T09:37:37;101999.42;;;7.99;36.94
61436;BME280;47304;47.456;19.160;2024-01-10T09:40:08;101998.23;;;8.80;35.96
61436;BME280;47304;47.456;19.160;2024-01-10T09:42:36;101995.47;;;9.98;35.69
61436;BME280;47304;47.456;19.160;2024-01-10T09:45:06;101987.23;;;11.22;35.04
61436;BME280;47304;47.456;19.160;2024-01-10T09:47:37;101983.55;;;12.54;34.03
61436;BME280;47304;47.456;19.160;2024-01-10T09:50:08;101980.01;;;13.56;31.09
61436;BME280;47304;47.456;19.160;2024-01-10T09:52:52;101979.73;;;13.91;29.61
61436;BME280;47304;47.456;19.160;2024-01-10T09:55:22;101978.00;;;14.27;28.89
61436;BME280;47304;47.456;19.160;2024-01-10T09:57:51;101978.85;;;14.82;28.69
61436;BME280;47304;47.456;19.160;2024-01-10T10:00:19;101971.83;;;15.12;26.99
61436;BME280;47304;47.456;19.160;2024-01-10T10:02:48;101968.35;;;15.20;26.73
61436;BME280;47304;47.456;19.160;2024-01-10T10:05:19;101964.02;;;15.05;26.31
61436;BME280;47304;47.456;19.160;2024-01-10T10:07:49;101964.88;;;14.38;26.03
61436;BME280;47304;47.456;19.160;2024-01-10T10:10:18;101964.20;;;13.34;25.90
61436;BME280;47304;47.456;19.160;2024-01-10T10:12:48;101958.19;;;12.29;25.93
61436;BME280;47304;47.456;19.160;2024-01-10T10:15:17;101958.98;;;11.37;25.97
61436;BME280;47304;47.456;19.160;2024-01-10T10:17:46;101964.45;;;10.49;26.20
61436;BME280;47304;47.456;19.160;2024-01-10T10:20:21;101963.66;;;9.80;26.90
61436;BME280;47304;47.456;19.160;2024-01-10T10:23:01;101961.73;;;9.67;27.73
61436;BME280;47304;47.456;19.160;2024-01-10T10:25:33;101959.06;;;9.72;27.58
61436;BME280;47304;47.456;19.160;2024-01-10T10:28:03;101957.16;;;9.42;27.64
61436;BME280;47304;47.456;19.160;2024-01-10T10:30:32;101957.56;;;9.09;28.05
61436;BME280;47304;47.456;19.160;2024-01-10T10:33:00;101955.52;;;8.94;28.62
61436;BME280;47304;47.456;19.160;2024-01-10T10:35:29;101952.38;;;9.11;29.11
61436;BME280;47304;47.456;19.160;2024-01-10T10:37:59;101946.79;;;10.53;28.64
61436;BME280;47304;47.456;19.160;2024-01-10T10:40:28;101935.86;;;13.25;27.28
61436;BME280;47304;47.456;19.160;2024-01-10T10:42:57;101929.40;;;14.75;25.60
61436;BME280;47304;47.456;19.160;2024-01-10T10:45:25;101920.35;;;15.74;24.69
61436;BME280;47304;47.456;19.160;2024-01-10T10:47:59;101913.88;;;17.77;23.41
61436;BME280;47304;47.456;19.160;2024-01-10T10:50:31;101907.80;;;19.94;22.52
61436;BME280;47304;47.456;19.160;2024-01-10T10:53:03;101901.57;;;21.45;21.76
61436;BME280;47304;47.456;19.160;2024-01-10T10:55:32;101894.33;;;23.02;21.09
61436;BME280;47304;47.456;19.160;2024-01-10T10:58:03;101893.81;;;24.36;19.77
61436;BME280;47304;47.456;19.160;2024-01-10T11:00:31;101891.02;;;25.44;19.41
61436;BME280;47304;47.456;19.160;2024-01-10T11:03:00;101888.15;;;26.07;17.52
61436;BME280;47304;47.456;19.160;2024-01-10T11:05:30;101886.69;;;26.42;17.47
61436;BME280;47304;47.456;19.160;2024-01-10T11:07:59;101885.48;;;27.14;17.47
61436;BME280;47304;47.456;19.160;2024-01-10T11:10:32;101879.82;;;27.58;17.18
61436;BME280;47304;47.456;19.160;2024-01-10T11:13:13;101875.38;;;28.41;16.76
61436;BME280;47304;47.456;19.160;2024-01-10T11:16:13;101869.59;;;28.62;16.32
61436;BME280;47304;47.456;19.160;2024-01-10T11:18:58;101868.90;;;29.06;15.22
61436;BME280;47304;47.456;19.160;2024-01-10T11:21:41;101867.32;;;29.86;15.33
61436;BME280;47304;47.456;19.160;2024-01-10T11:24:17;101863.21;;;30.76;15.62
61436;BME280;47304;47.456;19.160;2024-01-10T11:26:47;101863.12;;;31.33;14.78
61436;BME280;47304;47.456;19.160;2024-01-10T11:29:15;101859.94;;;30.97;14.31
61436;BME280;47304;47.456;19.160;2024-01-10T11:31:51;101864.38;;;30.08;14.26
61436;BME280;47304;47.456;19.160;2024-01-10T11:34:23;101862.77;;;27.76;14.62
61436;BME280;47304;47.456;19.160;2024-01-10T11:37:11;101861.09;;;24.86;15.28
61436;BME280;47304;47.456;19.160;2024-01-10T11:39:42;101867.89;;;22.35;16.53
61436;BME280;47304;47.456;19.160;2024-01-10T11:42:10;101866.33;;;21.51;17.07
61436;BME280;47304;47.456;19.160;2024-01-10T11:44:48;101860.02;;;21.78;16.42
61436;BME280;47304;47.456;19.160;2024-01-10T11:47:16;101852.40;;;22.20;16.86
61436;BME280;47304;47.456;19.160;2024-01-10T11:49:54;101848.79;;;23.48;17.18
61436;BME280;47304;47.456;19.160;2024-01-10T11:52:31;101843.46;;;25.48;16.60
61436;BME280;47304;47.456;19.160;2024-01-10T11:55:00;101833.36;;;26.74;15.98
61436;BME280;47304;47.456;19.160;2024-01-10T11:57:29;101830.63;;;27.60;15.61
61436;BME280;47304;47.456;19.160;2024-01-10T11:59:57;101827.73;;;28.36;15.42
61436;BME280;47304;47.456;19.160;2024-01-10T12:02:26;101831.77;;;29.22;14.74
61436;BME280;47304;47.456;19.160;2024-01-10T12:04:54;101827.64;;;29.54;14.13
61436;BME280;47304;47.456;19.160;2024-01-10T12:07:23;101823.52;;;30.03;14.48
61436;BME280;47304;47.456;19.160;2024-01-10T12:09:51;101819.15;;;30.87;14.31
61436;BME280;47304;47.456;19.160;2024-01-10T12:12:19;101820.65;;;31.92;13.77
61436;BME280;47304;47.456;19.160;2024-01-10T12:14:48;101815.69;;;32.59;12.93
61436;BME280;47304;47.456;19.160;2024-01-10T12:17:16;101816.02;;;32.69;12.86
61436;BME280;47304;47.456;19.160;2024-01-10T12:19:44;101820.88;;;32.91;12.82
61436;BME280;47304;47.456;19.160;2024-01-10T12:22:12;101824.49;;;33.26;12.67
61436;BME280;47304;47.456;19.160;2024-01-10T12:24:49;101824.44;;;33.47;12.51
61436;BME280;47304;47.456;19.160;2024-01-10T12:27:19;101822.64;;;33.34;12.28
61436;BME280;47304;47.456;19.160;2024-01-10T12:29:50;101821.61;;;32.59;12.24
61436;BME280;47304;47.456;19.160;2024-01-10T12:32:20;101822.83;;;30.81;12.27
61436;BME280;47304;47.456;19.160;2024-01-10T12:34:49;101824.16;;;27.77;13.31
61436;BME280;47304;47.456;19.160;2024-01-10T12:37:22;101826.63;;;25.13;14.40
61436;BME280;47304;47.456;19.160;2024-01-10T12:39:50;101826.48;;;23.23;15.29
61436;BME280;47304;47.456;19.160;2024-01-10T12:42:19;101824.55;;;22.20;15.58
61436;BME280;47304;47.456;19.160;2024-01-10T12:44:47;101824.67;;;21.95;15.94
61436;BME280;47304;47.456;19.160;2024-01-10T12:47:20;101823.67;;;21.20;16.16
61436;BME280;47304;47.456;19.160;2024-01-10T12:49:49;101820.98;;;19.85;16.85